createdAt,value
2022-10-20T00:01:10.613Z,8.88
2022-10-20T00:03:40.087Z,8.73
2022-10-20T00:06:10.105Z,9.13
2022-10-20T00:11:05.223Z,10.80
2022-10-20T00:13:32.188Z,9.68
2022-10-20T00:16:00.126Z,8.55
2022-10-20T00:18:27.801Z,8.77
2022-10-20T00:20:55.235Z,9.05
2022-10-20T00:23:22.640Z,11.00
2022-10-20T00:25:49.722Z,9.30
2022-10-20T00:29:06.052Z,8.23
2022-10-20T00:31:33.524Z,8.93
2022-10-20T00:34:00.480Z,8.00
2022-10-20T00:36:27.569Z,10.93
2022-10-20T00:39:00.389Z,8.90
2022-10-20T00:41:28.250Z,8.85
2022-10-20T00:43:56.624Z,8.90
2022-10-20T00:46:27.397Z,7.85
2022-10-20T00:48:58.117Z,7.85
2022-10-20T00:51:27.968Z,7.65
2022-10-20T00:56:25.798Z,8.32
2022-10-20T00:58:52.830Z,9.18
2022-10-20T01:01:19.927Z,8.52
2022-10-20T01:03:51.691Z,7.93
2022-10-20T01:06:21.560Z,9.20
2022-10-20T01:11:29.922Z,10.35
2022-10-20T01:14:26.845Z,9.73
2022-10-20T01:17:14.762Z,8.13
2022-10-20T01:19:50.677Z,8.38
2022-10-20T01:22:37.096Z,8.77
2022-10-20T01:25:13.578Z,11.93
2022-10-20T01:27:45.090Z,8.65
2022-10-20T01:30:12.009Z,7.57
2022-10-20T01:32:52.881Z,7.45
2022-10-20T01:35:38.389Z,8.38
2022-10-20T01:38:26.349Z,7.80
2022-10-20T01:41:14.144Z,7.82
2022-10-20T01:43:43.750Z,8.98
2022-10-20T01:46:12.708Z,7.00
2022-10-20T01:48:40.768Z,7.25
2022-10-20T01:51:10.015Z,8.13
2022-10-20T01:53:37.137Z,7.30
2022-10-20T01:56:06.244Z,6.82
2022-10-20T01:59:00.300Z,7.20
2022-10-20T02:01:53.293Z,6.97
2022-10-20T02:04:30.449Z,7.85
2022-10-20T02:07:07.942Z,8.88
2022-10-20T02:09:41.498Z,7.22
2022-10-20T02:12:14.892Z,7.22
2022-10-20T02:14:43.051Z,9.48
2022-10-20T02:17:16.204Z,7.30
2022-10-20T02:19:46.242Z,7.82
2022-10-20T02:24:44.365Z,7.60
2022-10-20T02:27:20.496Z,6.72
2022-10-20T02:30:09.629Z,7.18
2022-10-20T02:32:39.386Z,7.33
2022-10-20T02:35:13.116Z,7.43
2022-10-20T02:37:40.329Z,9.05
2022-10-20T02:40:08.399Z,9.15
2022-10-20T02:42:35.882Z,6.38
2022-10-20T02:45:03.561Z,6.85
2022-10-20T02:47:30.587Z,7.43
2022-10-20T02:49:57.541Z,7.07
2022-10-20T02:52:24.698Z,7.07
2022-10-20T02:54:51.627Z,7.32
2022-10-20T02:57:18.595Z,6.75
2022-10-20T02:59:45.608Z,6.65
2022-10-20T03:02:12.773Z,6.80
2022-10-20T03:04:39.966Z,6.82
2022-10-20T03:07:07.206Z,6.75
2022-10-20T03:09:34.166Z,6.18
2022-10-20T03:12:01.326Z,9.63
2022-10-20T03:14:28.338Z,6.97
2022-10-20T03:16:55.308Z,6.50
2022-10-20T03:19:22.218Z,6.43
2022-10-20T03:21:49.849Z,6.25
2022-10-20T03:24:16.985Z,8.20
2022-10-20T03:26:44.031Z,6.25
2022-10-20T03:29:11.029Z,6.25
2022-10-20T03:31:38.027Z,6.20
2022-10-20T03:34:05.110Z,5.53
2022-10-20T03:36:32.099Z,5.85
2022-10-20T03:38:58.996Z,5.53
2022-10-20T03:41:25.970Z,6.05
2022-10-20T03:43:52.946Z,6.93
2022-10-20T03:46:19.936Z,6.18
2022-10-20T03:48:46.863Z,5.70
2022-10-20T03:51:14.571Z,5.70
2022-10-20T03:53:41.834Z,5.63
2022-10-20T03:56:10.943Z,5.93
2022-10-20T03:58:38.006Z,5.60
2022-10-20T04:01:06.598Z,5.70
2022-10-20T04:03:33.814Z,5.32
2022-10-20T04:06:00.765Z,5.95
2022-10-20T04:08:27.952Z,6.90
2022-10-20T04:10:54.992Z,6.10
2022-10-20T04:13:21.952Z,7.93
2022-10-20T04:15:48.908Z,5.68
2022-10-20T04:18:16.001Z,6.90
2022-10-20T04:20:44.507Z,7.57
2022-10-20T04:23:12.036Z,5.40
2022-10-20T04:25:45.990Z,5.88
2022-10-20T04:28:14.034Z,5.97
2022-10-20T04:30:41.196Z,8.35
2022-10-20T04:33:08.490Z,4.90
2022-10-20T04:35:35.753Z,4.82
2022-10-20T04:38:02.898Z,6.90
2022-10-20T04:40:29.970Z,6.75
2022-10-20T04:43:00.057Z,5.55
2022-10-20T04:45:27.624Z,4.85
2022-10-20T04:47:54.541Z,5.13
2022-10-20T04:50:21.502Z,5.03
2022-10-20T04:52:59.628Z,5.07
2022-10-20T04:55:26.567Z,4.93
2022-10-20T04:57:54.751Z,4.97
2022-10-20T05:00:21.701Z,4.80
2022-10-20T05:02:48.693Z,5.47
2022-10-20T05:05:15.714Z,5.63
2022-10-20T05:07:42.796Z,5.53
2022-10-20T05:10:10.104Z,5.10
2022-10-20T05:12:37.275Z,4.28
2022-10-20T05:15:04.948Z,7.45
2022-10-20T05:17:31.994Z,4.85
2022-10-20T05:19:58.951Z,5.05
2022-10-20T05:22:26.106Z,5.63
2022-10-20T05:24:53.053Z,6.05
2022-10-20T05:27:19.982Z,4.80
2022-10-20T05:29:47.082Z,4.95
2022-10-20T05:32:14.138Z,4.97
2022-10-20T05:34:41.299Z,5.50
2022-10-20T05:37:08.309Z,5.72
2022-10-20T05:39:35.345Z,5.45
2022-10-20T05:42:03.106Z,5.30
2022-10-20T05:44:30.182Z,7.50
2022-10-20T05:46:57.141Z,7.18
2022-10-20T05:49:24.172Z,5.60
2022-10-20T05:52:02.294Z,9.43
2022-10-20T05:54:35.676Z,5.55
2022-10-20T05:57:06.441Z,5.57
2022-10-20T05:59:34.051Z,8.43
2022-10-20T06:02:01.499Z,5.70
2022-10-20T06:04:28.586Z,5.95
2022-10-20T06:06:56.757Z,8.27
2022-10-20T06:09:24.980Z,6.18
2022-10-20T06:11:53.111Z,9.75
2022-10-20T06:14:22.595Z,7.72
2022-10-20T06:16:56.352Z,5.32
2022-10-20T06:19:24.672Z,5.88
2022-10-20T06:21:52.443Z,4.97
2022-10-20T06:24:20.309Z,5.53
2022-10-20T06:26:47.702Z,5.53
2022-10-20T06:29:17.879Z,5.00
2022-10-20T06:31:47.957Z,8.65
2022-10-20T06:36:48.925Z,8.27
2022-10-20T06:39:22.147Z,5.85
2022-10-20T06:41:52.835Z,5.43
2022-10-20T06:44:22.218Z,5.68
2022-10-20T06:46:52.631Z,7.05
2022-10-20T06:49:20.454Z,6.72
2022-10-20T06:51:47.574Z,5.75
2022-10-20T06:54:15.018Z,6.07
2022-10-20T06:56:42.057Z,5.47
2022-10-20T06:59:09.159Z,5.75
2022-10-20T07:01:38.971Z,5.80
2022-10-20T07:06:45.772Z,5.18
2022-10-20T07:09:16.315Z,6.88
2022-10-20T07:11:44.131Z,5.88
2022-10-20T07:14:14.084Z,4.53
2022-10-20T07:16:41.447Z,6.05
2022-10-20T07:19:08.446Z,8.30
2022-10-20T07:21:38.423Z,7.15
2022-10-20T07:24:09.682Z,6.05
2022-10-20T07:26:39.370Z,10.45
2022-10-20T07:29:07.093Z,6.68
2022-10-20T07:31:38.221Z,4.93
2022-10-20T07:34:23.422Z,4.47
2022-10-20T07:36:52.234Z,4.40
2022-10-20T07:39:19.339Z,6.82
2022-10-20T07:41:48.218Z,4.57
2022-10-20T07:44:16.134Z,4.85
2022-10-20T07:46:43.993Z,5.07
2022-10-20T07:51:58.237Z,6.55
2022-10-20T07:54:25.246Z,11.85
2022-10-20T07:56:52.226Z,5.32
2022-10-20T07:59:19.897Z,8.05
2022-10-20T08:01:47.228Z,5.40
2022-10-20T08:04:14.295Z,5.82
2022-10-20T08:06:41.555Z,5.28
2022-10-20T08:09:08.617Z,5.00
2022-10-20T08:11:36.176Z,6.00
2022-10-20T08:14:03.411Z,5.57
2022-10-20T08:16:34.147Z,6.63
2022-10-20T08:19:05.686Z,5.82
2022-10-20T08:21:33.286Z,4.95
2022-10-20T08:24:02.686Z,5.78
2022-10-20T08:26:29.890Z,6.68
2022-10-20T08:28:56.897Z,5.70
2022-10-20T08:31:24.059Z,5.03
2022-10-20T08:33:53.156Z,5.57
2022-10-20T08:36:21.297Z,4.88
2022-10-20T08:38:48.924Z,6.57
2022-10-20T08:41:34.478Z,5.65
2022-10-20T08:44:05.206Z,5.40
2022-10-20T08:46:37.871Z,4.75
2022-10-20T08:49:15.406Z,4.82
2022-10-20T08:51:42.783Z,5.35
2022-10-20T08:54:15.100Z,6.63
2022-10-20T08:56:42.616Z,5.55
2022-10-20T08:59:36.015Z,6.38
2022-10-20T09:02:15.305Z,5.68
2022-10-20T09:05:00.421Z,5.70
2022-10-20T09:07:37.746Z,6.43
2022-10-20T09:10:24.213Z,5.53
2022-10-20T09:12:52.491Z,5.40
2022-10-20T09:15:21.403Z,5.72
2022-10-20T09:18:01.209Z,4.93
2022-10-20T09:23:16.487Z,4.70
2022-10-20T09:25:53.371Z,6.60
2022-10-20T09:28:26.579Z,6.97
2022-10-20T09:30:55.165Z,5.95
2022-10-20T09:33:32.233Z,5.65
2022-10-20T09:36:06.109Z,6.53
2022-10-20T09:38:35.348Z,5.35
2022-10-20T09:41:10.583Z,5.95
2022-10-20T09:43:40.798Z,5.38
2022-10-20T09:46:11.398Z,9.32
2022-10-20T09:48:42.314Z,5.35
2022-10-20T09:51:16.120Z,5.57
2022-10-20T09:54:04.675Z,6.07
2022-10-20T09:56:40.733Z,6.40
2022-10-20T09:59:19.393Z,6.32
2022-10-20T10:01:58.778Z,5.55
2022-10-20T10:04:50.365Z,5.75
2022-10-20T10:07:26.507Z,5.72
2022-10-20T10:10:21.245Z,6.43
2022-10-20T10:12:56.881Z,5.60
2022-10-20T10:15:31.272Z,8.05
2022-10-20T10:17:59.467Z,5.90
2022-10-20T10:20:34.078Z,7.22
2022-10-20T10:23:21.528Z,7.78
2022-10-20T10:25:49.915Z,5.82
2022-10-20T10:28:32.229Z,6.85
2022-10-20T10:31:24.061Z,7.43
2022-10-20T10:34:11.474Z,8.38
2022-10-20T10:36:38.815Z,7.38
2022-10-20T10:39:12.131Z,6.32
2022-10-20T10:42:25.797Z,6.60
2022-10-20T10:45:24.847Z,6.28
2022-10-20T10:48:00.739Z,7.18
2022-10-20T10:50:37.934Z,7.32
2022-10-20T10:53:07.854Z,7.53
2022-10-20T10:58:38.823Z,8.15
2022-10-20T11:01:05.797Z,6.80
2022-10-20T11:04:00.457Z,6.18
2022-10-20T11:06:40.006Z,5.63
2022-10-20T11:09:32.422Z,6.15
2022-10-20T11:12:28.605Z,6.47
2022-10-20T11:15:26.059Z,9.40
2022-10-20T11:18:06.874Z,5.80
2022-10-20T11:20:41.248Z,5.97
2022-10-20T11:23:53.611Z,6.82
2022-10-20T11:26:36.583Z,6.95
2022-10-20T11:29:10.229Z,6.57
2022-10-20T11:31:48.559Z,6.88
2022-10-20T11:34:30.394Z,7.55
2022-10-20T11:37:06.013Z,7.60
2022-10-20T11:39:54.791Z,8.68
2022-10-20T11:42:24.886Z,7.47
2022-10-20T11:44:54.446Z,7.03
2022-10-20T11:47:35.983Z,7.55
2022-10-20T11:50:11.587Z,8.15
2022-10-20T11:52:50.462Z,7.68
2022-10-20T11:55:29.623Z,8.43
2022-10-20T11:58:15.193Z,8.05
2022-10-20T12:00:50.639Z,6.97
2022-10-20T12:03:39.071Z,8.95
2022-10-20T12:06:31.712Z,9.25
2022-10-20T12:09:07.843Z,8.45
2022-10-20T12:11:52.018Z,7.45
2022-10-20T12:14:28.930Z,9.43
2022-10-20T12:16:55.834Z,7.47
2022-10-20T12:19:30.434Z,7.53
2022-10-20T12:22:06.650Z,7.72
2022-10-20T12:24:39.633Z,7.78
2022-10-20T12:27:29.817Z,8.45
2022-10-20T12:30:35.199Z,7.72
2022-10-20T12:33:39.362Z,7.82
2022-10-20T12:36:26.499Z,7.72
2022-10-20T12:39:08.325Z,7.57
2022-10-20T12:41:55.289Z,8.85
2022-10-20T12:44:23.722Z,10.77
2022-10-20T12:47:09.750Z,9.55
2022-10-20T12:49:40.939Z,8.88
2022-10-20T12:52:21.297Z,6.85
2022-10-20T12:54:55.519Z,7.47
2022-10-20T12:57:38.705Z,8.23
2022-10-20T13:00:08.242Z,8.02
2022-10-20T13:02:55.882Z,8.13
2022-10-20T13:05:40.987Z,9.27
2022-10-20T13:08:20.061Z,6.72
2022-10-20T13:10:48.271Z,5.97
2022-10-20T13:13:18.206Z,7.40
2022-10-20T13:15:54.189Z,6.63
2022-10-20T13:18:30.747Z,8.75
2022-10-20T13:21:09.078Z,7.55
2022-10-20T13:23:41.731Z,6.95
2022-10-20T13:26:23.870Z,7.95
2022-10-20T13:28:53.723Z,6.95
2022-10-20T13:34:26.953Z,7.38
2022-10-20T13:37:12.431Z,7.55
2022-10-20T13:39:42.326Z,7.55
2022-10-20T13:42:50.900Z,7.32
2022-10-20T13:45:38.447Z,8.10
2022-10-20T13:48:05.515Z,7.13
2022-10-20T13:51:01.578Z,7.95
2022-10-20T13:53:40.575Z,7.35
2022-10-20T13:56:20.435Z,7.20
2022-10-20T13:59:05.965Z,7.80
2022-10-20T14:01:36.404Z,7.20
2022-10-20T14:04:19.402Z,7.90
2022-10-20T14:06:47.297Z,9.00
2022-10-20T14:09:25.795Z,7.65
2022-10-20T14:11:58.578Z,7.80
2022-10-20T14:14:27.626Z,6.97
2022-10-20T14:17:04.666Z,8.05
2022-10-20T14:19:33.710Z,7.53
2022-10-20T14:22:11.170Z,7.28
2022-10-20T14:24:45.438Z,9.32
2022-10-20T14:27:33.117Z,6.95
2022-10-20T14:30:04.502Z,7.80
2022-10-20T14:32:40.563Z,11.27
2022-10-20T14:35:23.805Z,7.65
2022-10-20T14:38:04.411Z,7.13
2022-10-20T14:40:34.282Z,9.18
2022-10-20T14:43:06.717Z,7.25
2022-10-20T14:45:33.900Z,7.70
2022-10-20T14:48:01.980Z,8.32
2022-10-20T14:50:36.459Z,8.32
2022-10-20T14:53:28.023Z,6.85
2022-10-20T14:55:56.412Z,9.38
2022-10-20T14:58:56.182Z,7.25
2022-10-20T15:04:24.558Z,7.75
2022-10-20T15:07:21.946Z,6.97
2022-10-20T15:09:52.073Z,8.10
2022-10-20T15:12:20.732Z,7.07
2022-10-20T15:14:51.626Z,7.78
2022-10-20T15:17:37.314Z,8.82
2022-10-20T15:20:43.624Z,7.35
2022-10-20T15:23:24.977Z,9.23
2022-10-20T15:26:13.763Z,7.05
2022-10-20T15:28:45.584Z,7.38
2022-10-20T15:31:22.569Z,8.00
2022-10-20T15:33:50.461Z,7.10
2022-10-20T15:36:29.530Z,9.27
2022-10-20T15:38:56.903Z,10.48
2022-10-20T15:41:30.205Z,9.38
2022-10-20T15:44:04.714Z,16.85
2022-10-20T15:46:31.745Z,10.63
2022-10-20T15:48:58.806Z,19.33
2022-10-20T15:51:28.593Z,9.38
2022-10-20T15:53:56.241Z,11.48
2022-10-20T15:56:23.319Z,9.80
2022-10-20T15:58:50.610Z,9.38
2022-10-20T16:01:19.170Z,11.23
2022-10-20T16:03:47.201Z,9.02
2022-10-20T16:06:16.202Z,11.15
2022-10-20T16:08:44.680Z,13.67
2022-10-20T16:11:13.318Z,12.05
2022-10-20T16:13:40.416Z,9.43
2022-10-20T16:16:09.166Z,10.50
2022-10-20T16:18:36.411Z,15.10
2022-10-20T16:21:05.268Z,9.73
2022-10-20T16:23:34.744Z,15.05
2022-10-20T16:26:05.346Z,11.15
2022-10-20T16:28:32.460Z,13.93
2022-10-20T16:31:05.387Z,11.63
2022-10-20T16:33:32.637Z,14.60
2022-10-20T16:36:02.830Z,12.75
2022-10-20T16:38:29.965Z,10.18
2022-10-20T16:40:58.858Z,10.23
2022-10-20T16:43:25.935Z,10.82
2022-10-20T16:45:53.087Z,11.45
2022-10-20T16:48:20.877Z,10.50
2022-10-20T16:50:47.832Z,13.40
2022-10-20T16:53:15.160Z,10.32
2022-10-20T16:55:51.762Z,11.75
2022-10-20T16:58:18.767Z,14.40
2022-10-20T17:00:46.055Z,17.27
2022-10-20T17:03:16.873Z,11.18
2022-10-20T17:05:46.448Z,11.70
2022-10-20T17:08:13.353Z,13.48
2022-10-20T17:10:41.243Z,13.63
2022-10-20T17:13:10.360Z,13.65
2022-10-20T17:15:37.462Z,11.40
2022-10-20T17:18:04.509Z,12.68
2022-10-20T17:20:31.539Z,12.15
2022-10-20T17:22:58.427Z,13.98
2022-10-20T17:25:25.370Z,13.27
2022-10-20T17:27:52.295Z,14.13
2022-10-20T17:30:19.242Z,17.08
2022-10-20T17:32:46.220Z,12.60
2022-10-20T17:35:14.668Z,13.25
2022-10-20T17:37:42.128Z,12.43
2022-10-20T17:40:09.684Z,12.52
2022-10-20T17:42:36.827Z,11.75
2022-10-20T17:45:04.324Z,11.90
2022-10-20T17:47:31.531Z,13.30
2022-10-20T17:49:58.581Z,10.20
2022-10-20T17:52:25.563Z,11.80
2022-10-20T17:54:52.523Z,10.80
2022-10-20T17:57:22.520Z,11.65
2022-10-20T18:02:23.897Z,12.77
2022-10-20T18:04:51.544Z,12.05
2022-10-20T18:07:18.519Z,11.23
2022-10-20T18:09:45.534Z,15.05
2022-10-20T18:12:12.621Z,11.13
2022-10-20T18:14:39.561Z,15.77
2022-10-20T18:17:06.625Z,14.70
2022-10-20T18:19:33.763Z,14.30
2022-10-20T18:22:00.811Z,15.45
2022-10-20T18:24:27.847Z,13.23
2022-10-20T18:26:54.725Z,16.23
2022-10-20T18:29:21.931Z,17.30
2022-10-20T18:31:50.099Z,17.25
2022-10-20T18:34:23.211Z,19.10
2022-10-20T18:36:51.494Z,16.52
2022-10-20T18:39:18.553Z,14.13
2022-10-20T18:41:46.511Z,17.58
2022-10-20T18:44:16.201Z,15.82
2022-10-20T18:46:44.007Z,15.60
2022-10-20T18:49:19.802Z,14.63
2022-10-20T18:51:47.816Z,13.15
2022-10-20T18:54:15.645Z,16.83
2022-10-20T18:56:43.221Z,12.05
2022-10-20T18:59:14.204Z,15.18
2022-10-20T19:01:41.399Z,12.75
2022-10-20T19:04:10.383Z,14.88
2022-10-20T19:06:41.187Z,15.47
2022-10-20T19:09:11.416Z,15.93
2022-10-20T19:11:40.149Z,20.35
2022-10-20T19:14:09.891Z,23.80
2022-10-20T19:16:38.736Z,22.23
2022-10-20T19:19:07.752Z,25.40
2022-10-20T19:21:35.625Z,23.40
2022-10-20T19:24:15.855Z,24.75
2022-10-20T19:26:56.858Z,26.80
2022-10-20T19:29:29.971Z,28.90
2022-10-20T19:31:59.831Z,27.27
2022-10-20T19:34:35.847Z,30.98
2022-10-20T19:37:03.043Z,28.88
2022-10-20T19:39:33.658Z,29.10
2022-10-20T19:42:02.398Z,27.10
2022-10-20T19:44:29.667Z,24.88
2022-10-20T19:46:56.704Z,28.48
2022-10-20T19:49:24.398Z,24.60
2022-10-20T19:51:51.737Z,22.30
2022-10-20T19:54:19.027Z,26.20
2022-10-20T19:56:46.016Z,24.60
2022-10-20T19:59:14.149Z,26.80
2022-10-20T20:01:41.185Z,23.48
2022-10-20T20:04:08.239Z,28.38
2022-10-20T20:06:35.613Z,26.35
2022-10-20T20:09:06.330Z,24.60
2022-10-20T20:11:34.800Z,26.45
2022-10-20T20:14:07.729Z,20.40
2022-10-20T20:16:34.931Z,20.33
2022-10-20T20:19:02.043Z,24.17
2022-10-20T20:21:29.095Z,21.05
2022-10-20T20:24:00.207Z,19.42
2022-10-20T20:26:30.106Z,20.33
2022-10-20T20:28:57.704Z,22.80
2022-10-20T20:31:25.439Z,19.90
2022-10-20T20:33:53.140Z,20.95
2022-10-20T20:36:21.032Z,20.88
2022-10-20T20:38:49.293Z,17.15
2022-10-20T20:41:18.343Z,22.20
2022-10-20T20:43:45.443Z,17.88
2022-10-20T20:46:23.970Z,19.20
2022-10-20T20:48:51.477Z,19.58
2022-10-20T20:51:18.910Z,16.33
2022-10-20T20:53:45.962Z,18.00
2022-10-20T20:56:19.619Z,15.65
2022-10-20T20:58:49.217Z,19.60
2022-10-20T21:01:22.239Z,18.55
2022-10-20T21:03:56.532Z,21.90
2022-10-20T21:06:33.445Z,20.55
2022-10-20T21:09:01.555Z,17.17
2022-10-20T21:11:29.944Z,20.98
2022-10-20T21:13:59.166Z,18.63
2022-10-20T21:16:27.621Z,17.23
2022-10-20T21:18:57.381Z,15.90
2022-10-20T21:21:28.519Z,17.88
2022-10-20T21:23:56.994Z,15.15
2022-10-20T21:26:24.654Z,18.23
2022-10-20T21:28:53.067Z,16.77
2022-10-20T21:31:23.451Z,17.40
2022-10-20T21:33:51.909Z,15.45
2022-10-20T21:36:20.619Z,15.88
2022-10-20T21:38:48.470Z,17.20
2022-10-20T21:41:18.892Z,17.90
2022-10-20T21:43:49.038Z,22.75
2022-10-20T21:46:21.489Z,18.42
2022-10-20T21:48:50.633Z,17.15
2022-10-20T21:51:26.766Z,18.90
2022-10-20T21:54:01.600Z,21.27
2022-10-20T21:56:29.629Z,17.58
2022-10-20T21:58:56.569Z,15.85
2022-10-20T22:01:25.453Z,14.02
2022-10-20T22:03:54.038Z,14.80
2022-10-20T22:06:23.378Z,16.73
2022-10-20T22:08:53.175Z,19.20
2022-10-20T22:11:24.383Z,16.05
2022-10-20T22:13:51.905Z,14.63
2022-10-20T22:16:21.641Z,17.88
2022-10-20T22:18:48.648Z,16.58
2022-10-20T22:21:17.736Z,17.38
2022-10-20T22:23:45.570Z,16.73
2022-10-20T22:26:12.852Z,16.55
2022-10-20T22:28:40.523Z,17.65
2022-10-20T22:31:07.895Z,17.88
2022-10-20T22:33:35.369Z,15.38
2022-10-20T22:36:03.653Z,13.85
2022-10-20T22:38:31.157Z,16.35
2022-10-20T22:41:02.215Z,15.57
2022-10-20T22:43:30.720Z,15.60
2022-10-20T22:45:58.319Z,14.00
2022-10-20T22:48:25.646Z,16.00
2022-10-20T22:50:52.890Z,18.35
2022-10-20T22:53:20.015Z,14.27
2022-10-20T22:55:47.455Z,14.48
2022-10-20T22:58:14.503Z,15.32
2022-10-20T23:00:44.010Z,17.17
2022-10-20T23:03:11.055Z,14.85
2022-10-20T23:05:38.094Z,16.73
2022-10-20T23:08:05.909Z,15.50
2022-10-20T23:10:33.042Z,14.60
2022-10-20T23:13:00.002Z,14.10
2022-10-20T23:15:27.557Z,15.23
2022-10-20T23:17:55.597Z,14.85
2022-10-20T23:20:22.506Z,14.60
2022-10-20T23:22:49.506Z,14.98
2022-10-20T23:25:16.589Z,13.90
2022-10-20T23:27:43.685Z,16.17
2022-10-20T23:30:10.879Z,13.05
2022-10-20T23:32:37.871Z,14.93
2022-10-20T23:35:05.250Z,12.60
2022-10-20T23:37:33.003Z,15.77
2022-10-20T23:39:59.900Z,14.57
2022-10-20T23:42:26.838Z,12.43
2022-10-20T23:44:53.766Z,13.80
2022-10-20T23:47:21.009Z,13.32
2022-10-20T23:49:48.615Z,12.88
2022-10-20T23:52:15.608Z,14.88
2022-10-20T23:54:42.572Z,12.48
2022-10-20T23:57:09.605Z,15.48
2022-10-20T23:59:36.521Z,15.18
